Flight Track Log - Related Links

Times and Time Zones

All times are in EDT time to prevent confusion due to time zone crossing. See the GLA64P flight status page for this flight to view local times or setup timezone preferences in your user account.

Time Position Orientation Groundspeed Altitude Reporting Facility
EDT Latitude Longitude Course Direction KTS MPH feet Rate Location/Type
Tue 03:29:02 PM 33.9144 -118.4456 90° East 157 181 2,200  Level Los Angeles Center
Tue 03:30:04 PM 33.8606 -118.4622 194° South 186 214 4,100 1,536 Climbing Los Angeles Center
Tue 03:31:07 PM 33.8131 -118.4708 189° South 195 224 5,400 1,306 Climbing Los Angeles Center
Tue 03:32:08 PM 33.7789 -118.4203 129° Southeast 197 227 6,800 1,463 Climbing Los Angeles Center
Tue 03:33:10 PM 33.7439 -118.3650 127° Southeast 206 237 8,400 1,548 Climbing Los Angeles Center
Tue 03:34:00 PM 33.7667 -117.9741 90° East  Level FlightAware Approximate
Tue 03:34:12 PM 33.7383 -118.2878 95° East 218 251 10,000  Level Los Angeles Center
Tue 03:35:13 PM 33.7503 -118.2164 79° East 221 254 11,400 1,463 Climbing Los Angeles Center
Tue 03:36:15 PM 33.7625 -118.1239 81° East 231 266 13,000 1,452 Climbing Los Angeles Center
Tue 03:37:17 PM 33.7725 -118.0439 81° East 239 275 14,400 1,355 Climbing Los Angeles Center
Tue 03:38:19 PM 33.7686 -117.9614 93° East 245 282 15,800 1,210 Climbing Los Angeles Center
Tue 03:39:21 PM 33.7653 -117.8758 93° East 252 290 16,900 389 Climbing Los Angeles Center
Tue 03:41:24 PM 33.7558 -117.6803 93° East 300 345 17,000 32 Climbing Los Angeles Center
Tue 03:42:26 PM 33.7461 -117.5558 95° East 311 358 17,000  Level Los Angeles Center
Tue 03:43:28 PM 33.7356 -117.4511 97° East 315 362 17,000  Level Los Angeles Center
Tue 03:44:29 PM 33.7275 -117.3464 95° East 315 362 17,000  Level Los Angeles Center
Tue 03:45:31 PM 33.7192 -117.2422 95° East 315 362 17,000  Level Los Angeles Center
Tue 03:46:33 PM 33.7094 -117.1364 96° East 319 367 17,000  Level Los Angeles Center
Tue 03:47:35 PM 33.6969 -117.0322 98° East 318 366 17,000  Level Los Angeles Center
Tue 03:48:37 PM 33.6861 -116.9261 97° East 320 368 17,000 677 Level Los Angeles Center
Tue 03:49:39 PM 33.6814 -116.7992 93° East 316 364 18,400 976 Climbing Los Angeles Center
Tue 03:50:40 PM 33.6725 -116.7039 96° East 297 342 19,000 1,024 Climbing Los Angeles Center
Tue 03:51:42 PM 33.6614 -116.6006 97° East 310 357 20,500 968 Climbing Los Angeles Center
Tue 03:52:44 PM 33.6536 -116.5017 95° East 301 346 21,000 242 Climbing Los Angeles Center
Tue 03:53:46 PM 33.6447 -116.3861 95° East 342 394 21,000  Level Los Angeles Center
Tue 03:54:48 PM 33.6364 -116.2683 95° East 355 409 21,000  Level Los Angeles Center
Tue 03:56:02 PM 33.6317 -116.1478 93° East 361 415 21,000  Level Los Angeles Center
Tue 03:57:04 PM 33.6975 -116.0094 60° Northeast 347 399 21,000  Level Los Angeles Center
Tue 03:58:06 PM 33.7706 -115.9403 38° Northeast 336 387 21,000  Level Los Angeles Center
Tue 03:59:08 PM 33.8425 -115.8647 41° Northeast 341 392 21,000  Level Los Angeles Center
Tue 04:00:10 PM 33.9083 -115.7797 47° Northeast 348 400 21,000  Level Los Angeles Center
Tue 04:01:12 PM 33.9714 -115.6897 50° Northeast 351 404 21,000  Level Los Angeles Center
Tue 04:02:26 PM 34.0361 -115.5989 49° Northeast 355 409 21,000 -44 Level Los Angeles Center
Tue 04:03:28 PM 34.1347 -115.4833 44° Northeast 355 409 20,900  Descending Los Angeles Center
Tue 04:04:30 PM 34.1950 -115.3925 51° Northeast 347 399 21,000 48 Climbing Los Angeles Center
Tue 04:05:32 PM 34.2550 -115.3008 52° Northeast 348 400 21,000 -48 Level Los Angeles Center
Tue 04:06:34 PM 34.3108 -115.2081 54° Northeast 343 395 20,900 -48 Descending Los Angeles Center
Tue 04:07:36 PM 34.3611 -115.1083 59° Northeast 345 397 20,900 968 Level Los Angeles Center
Tue 04:08:38 PM 34.4186 -115.0111 54° Northeast 329 379 22,900 1,016 Climbing Los Angeles Center
Tue 04:09:40 PM 34.4725 -114.9306 51° Northeast 314 361 23,000 48 Climbing Los Angeles Center
Tue 04:10:42 PM 34.5333 -114.8344 52° Northeast 353 406 23,000  Level Los Angeles Center
Tue 04:11:44 PM 34.5972 -114.7417 50° Northeast 359 413 23,000  Level Los Angeles Center
Tue 04:12:46 PM 34.6736 -114.6311 50° Northeast 356 410 23,000  Level Los Angeles Center
Tue 04:13:48 PM 34.7317 -114.5314 55° Northeast 361 415 23,000 48 Level Los Angeles Center
Tue 04:14:50 PM 34.7803 -114.4564 52° Northeast 356 410 23,100  Climbing Los Angeles Center
Tue 04:15:52 PM 34.7878 -114.3200 86° East 340 391 23,000 -48 Descending Los Angeles Center
Tue 04:16:54 PM 34.7825 -114.2067 93° East 337 388 23,000  Level Los Angeles Center
Tue 04:17:56 PM 34.7753 -114.0936 94° East 335 386 23,000  Level Los Angeles Center
Tue 04:18:58 PM 34.7664 -113.9611 95° East 331 381 23,000  Level Los Angeles Center
Tue 04:20:00 PM 34.7619 -113.8658 93° East 334 384 23,000  Level Los Angeles Center
Tue 04:21:02 PM 34.7606 -113.7333 91° East 330 380 23,000  Level Los Angeles Center
Tue 04:22:06 PM 34.7572 -113.6214 92° East 331 381 23,000 -381 Level Albuquerque Center
Tue 04:23:08 PM 34.7533 -113.5131 92° East 326 375 22,200 -968 Descending Albuquerque Center
Tue 04:24:10 PM 34.7447 -113.4083 96° East 318 366 21,000 -1,161 Descending Albuquerque Center
Tue 04:25:12 PM 34.7367 -113.3028 95° East 316 364 19,800 -1,415 Descending Albuquerque Center
Tue 04:26:13 PM 34.7286 -113.1783 94° East 312 359 18,100 -1,610 Descending Albuquerque Center
Tue 04:27:15 PM 34.7189 -113.0786 97° East 304 350 16,500 -1,984 Descending Albuquerque Center
Tue 04:28:17 PM 34.7106 -112.9819 96° East 295 339 14,000 -2,177 Descending Albuquerque Center
Tue 04:29:19 PM 34.7114 -112.8917 89° East 277 319 12,000 -1,415 Descending Albuquerque Center
Tue 04:30:20 PM 34.7167 -112.8108 85° East 255 293 11,100 -976 Descending Albuquerque Center
Tue 04:31:22 PM 34.7153 -112.7153 91° East 241 277 10,000 -1,065 Descending Albuquerque Center
Tue 04:32:24 PM 34.7122 -112.6344 93° East 242 278 8,900 -1,065 Descending Albuquerque Center
Tue 04:33:26 PM 34.6992 -112.5575 102° East 237 273 7,800 -829 Descending Albuquerque Center
Tue 04:34:27 PM 34.6947 -112.4858 94° East 220 253 7,200 -878 Descending Albuquerque Center
Tue 04:35:29 PM 34.6967 -112.4272 88° East 184 212 6,000 -968 Descending Albuquerque Center
Tue 04:36:31 PM 34.6706 -112.4056 146° Southeast 151 174 5,200 -774 Descending Albuquerque Center

Login

Don't have an account? Register now (free) for customized features, flight alerts, and more!